createdAt,value
2022-11-13T00:00:23.792Z,11.12
2022-11-13T00:03:09.472Z,11.13
2022-11-13T00:06:02.372Z,11.16
2022-11-13T00:08:49.005Z,11.24
2022-11-13T00:11:35.073Z,11.32
2022-11-13T00:14:20.771Z,11.28
2022-11-13T00:17:06.670Z,11.27
2022-11-13T00:19:52.333Z,11.24
2022-11-13T00:22:38.267Z,11.18
2022-11-13T00:25:23.934Z,11.12
2022-11-13T00:28:09.440Z,11.00
2022-11-13T00:30:58.946Z,10.83
2022-11-13T00:36:49.974Z,10.67
2022-11-13T00:39:35.510Z,10.68
2022-11-13T00:42:21.047Z,10.68
2022-11-13T00:45:09.940Z,10.68
2022-11-13T00:47:55.524Z,10.60
2022-11-13T00:50:41.479Z,10.61
2022-11-13T00:53:27.317Z,10.65
2022-11-13T00:56:12.890Z,10.68
2022-11-13T00:58:58.340Z,10.78
2022-11-13T01:01:44.106Z,10.78
2022-11-13T01:04:29.678Z,10.83
2022-11-13T01:07:15.001Z,10.87
2022-11-13T01:10:01.217Z,10.84
2022-11-13T01:12:46.572Z,10.85
2022-11-13T01:15:32.006Z,10.80
2022-11-13T01:18:17.616Z,10.71
2022-11-13T01:21:14.557Z,10.78
2022-11-13T01:24:01.499Z,10.87
2022-11-13T01:26:47.193Z,10.89
2022-11-13T01:29:33.060Z,10.82
2022-11-13T01:32:18.869Z,10.81
2022-11-13T01:35:04.448Z,10.81
2022-11-13T01:37:49.980Z,10.79
2022-11-13T01:40:35.927Z,10.71
2022-11-13T01:43:31.195Z,10.66
2022-11-13T01:46:20.006Z,10.61
2022-11-13T01:49:08.893Z,10.61
2022-11-13T01:52:02.094Z,10.54
2022-11-13T01:54:53.998Z,10.43
2022-11-13T01:57:41.232Z,10.42
2022-11-13T02:00:26.963Z,10.35
2022-11-13T02:03:13.066Z,10.38
2022-11-13T02:05:58.652Z,10.40
2022-11-13T02:08:45.533Z,10.40
2022-11-13T02:11:30.996Z,10.41
2022-11-13T02:14:19.451Z,10.47
2022-11-13T02:17:08.765Z,10.43
2022-11-13T02:20:01.250Z,10.45
2022-11-13T02:23:36.606Z,10.53
2022-11-13T02:26:26.573Z,10.56
2022-11-13T02:29:12.254Z,10.54
2022-11-13T02:31:57.749Z,10.51
2022-11-13T02:34:43.375Z,10.49
2022-11-13T02:37:30.050Z,10.47
2022-11-13T02:40:16.361Z,10.38
2022-11-13T02:43:01.962Z,10.37
2022-11-13T02:45:49.814Z,10.35
2022-11-13T02:48:35.431Z,10.33
2022-11-13T02:51:21.358Z,10.35
2022-11-13T02:54:07.161Z,10.35
2022-11-13T02:56:52.775Z,10.36
2022-11-13T02:59:39.809Z,10.35
2022-11-13T03:02:25.442Z,10.33
2022-11-13T03:05:12.927Z,10.27
2022-11-13T03:07:59.320Z,10.21
2022-11-13T03:10:44.707Z,10.14
2022-11-13T03:13:30.323Z,10.26
2022-11-13T03:16:17.922Z,10.36
2022-11-13T03:19:03.742Z,10.38
2022-11-13T03:21:49.689Z,10.35
2022-11-13T03:24:35.125Z,10.32
2022-11-13T03:27:20.969Z,10.26
2022-11-13T03:30:07.338Z,10.27
2022-11-13T03:32:56.970Z,10.27
2022-11-13T03:35:46.926Z,10.13
2022-11-13T03:38:33.485Z,10.15
2022-11-13T03:45:46.964Z,10.14
2022-11-13T03:48:32.631Z,10.19
2022-11-13T03:51:18.614Z,10.22
2022-11-13T03:54:04.448Z,10.16
2022-11-13T03:56:50.078Z,10.09
2022-11-13T03:59:35.821Z,9.98
2022-11-13T04:02:21.476Z,9.96
2022-11-13T04:05:08.514Z,9.99
2022-11-13T04:07:54.503Z,9.82
2022-11-13T04:10:40.250Z,9.70
2022-11-13T04:13:25.865Z,9.60
2022-11-13T04:16:11.246Z,9.47
2022-11-13T04:18:57.332Z,9.37
2022-11-13T04:21:43.018Z,9.32
2022-11-13T04:24:28.703Z,9.29
2022-11-13T04:27:14.292Z,9.40
2022-11-13T04:30:04.851Z,9.39
2022-11-13T04:32:50.022Z,9.45
2022-11-13T04:35:35.829Z,9.52
2022-11-13T04:38:21.142Z,9.63
2022-11-13T04:41:25.581Z,9.61
2022-11-13T04:44:11.371Z,9.51
2022-11-13T04:46:56.947Z,9.42
2022-11-13T04:49:42.762Z,9.32
2022-11-13T04:52:30.192Z,9.27
2022-11-13T04:55:15.921Z,9.17
2022-11-13T04:58:01.548Z,9.16
2022-11-13T05:00:47.463Z,9.11
2022-11-13T05:03:32.769Z,9.16
2022-11-13T05:06:18.410Z,9.19
2022-11-13T05:09:04.009Z,9.24
2022-11-13T05:11:49.647Z,9.27
2022-11-13T05:14:36.548Z,9.26
2022-11-13T05:17:23.379Z,9.40
2022-11-13T05:20:09.525Z,9.36
2022-11-13T05:22:55.320Z,9.39
2022-11-13T05:25:40.488Z,9.42
2022-11-13T05:28:26.891Z,9.51
2022-11-13T05:31:16.732Z,9.54
2022-11-13T05:34:06.185Z,9.47
2022-11-13T05:36:59.264Z,9.39
2022-11-13T05:40:06.060Z,9.47
2022-11-13T05:42:53.984Z,9.64
2022-11-13T05:45:50.478Z,9.68
2022-11-13T05:48:37.236Z,9.78
2022-11-13T05:51:27.319Z,9.82
2022-11-13T05:54:13.058Z,9.82
2022-11-13T05:56:58.692Z,9.86
2022-11-13T05:59:43.894Z,9.86
2022-11-13T06:02:32.199Z,9.91
2022-11-13T06:05:17.687Z,9.96
2022-11-13T06:08:03.253Z,9.95
2022-11-13T06:10:49.514Z,9.79
2022-11-13T06:13:35.212Z,9.54
2022-11-13T06:16:24.417Z,9.48
2022-11-13T06:19:11.423Z,9.44
2022-11-13T06:21:57.077Z,9.45
2022-11-13T06:24:42.854Z,9.31
2022-11-13T06:27:37.273Z,9.16
2022-11-13T06:30:40.682Z,9.78
2022-11-13T06:33:35.522Z,11.56
2022-11-13T06:36:26.835Z,13.13
2022-11-13T06:39:12.513Z,14.18
2022-11-13T06:41:58.032Z,15.14
2022-11-13T06:44:43.761Z,15.66
2022-11-13T06:47:30.769Z,16.70
2022-11-13T06:50:16.419Z,16.96
2022-11-13T06:53:02.105Z,17.35
2022-11-13T06:55:49.934Z,18.18
2022-11-13T06:58:36.003Z,17.69
2022-11-13T07:01:24.454Z,18.05
2022-11-13T07:04:13.326Z,19.01
2022-11-13T07:06:58.834Z,19.42
2022-11-13T07:09:44.259Z,18.67
2022-11-13T07:12:30.389Z,18.39
2022-11-13T07:15:16.709Z,17.14
2022-11-13T07:18:06.733Z,16.12
2022-11-13T07:20:52.421Z,16.13
2022-11-13T07:23:43.190Z,17.05
2022-11-13T07:26:28.923Z,16.27
2022-11-13T07:29:14.083Z,15.30
2022-11-13T07:31:59.214Z,14.84
2022-11-13T07:34:44.423Z,14.84
2022-11-13T07:37:30.390Z,15.05
2022-11-13T07:40:17.238Z,15.44
2022-11-13T07:43:04.033Z,14.33
2022-11-13T07:45:54.693Z,13.94
2022-11-13T07:48:40.036Z,13.67
2022-11-13T07:51:27.859Z,13.48
2022-11-13T07:54:13.336Z,14.15
2022-11-13T07:56:58.752Z,14.84
2022-11-13T07:59:44.421Z,14.89
2022-11-13T08:02:30.592Z,15.27
2022-11-13T08:05:16.630Z,14.68
2022-11-13T08:08:02.960Z,14.13
2022-11-13T08:10:48.469Z,13.92
2022-11-13T08:13:34.944Z,14.49
2022-11-13T08:16:20.643Z,15.74
2022-11-13T08:19:06.038Z,16.63
2022-11-13T08:21:51.603Z,17.29
2022-11-13T08:24:37.646Z,18.82
2022-11-13T08:27:24.007Z,20.13
2022-11-13T08:30:10.067Z,20.47
2022-11-13T08:32:55.685Z,19.75
2022-11-13T08:35:41.212Z,19.15
2022-11-13T08:38:27.804Z,18.49
2022-11-13T08:41:13.178Z,17.41
2022-11-13T08:43:58.711Z,16.72
2022-11-13T08:46:44.497Z,16.02
2022-11-13T08:49:30.330Z,15.44
2022-11-13T08:52:16.079Z,15.04
2022-11-13T08:55:04.849Z,14.54
2022-11-13T08:58:10.369Z,14.15
2022-11-13T09:01:05.753Z,13.79
2022-11-13T09:03:51.866Z,13.30
2022-11-13T09:06:38.010Z,13.18
2022-11-13T09:09:23.967Z,12.77
2022-11-13T09:12:09.920Z,12.51
2022-11-13T09:15:00.590Z,12.47
2022-11-13T09:17:46.446Z,12.29
2022-11-13T09:20:33.703Z,11.99
2022-11-13T09:23:19.263Z,11.69
2022-11-13T09:26:04.661Z,11.54
2022-11-13T09:28:50.116Z,11.53
2022-11-13T09:31:35.779Z,11.53
2022-11-13T09:34:21.579Z,11.43
2022-11-13T09:37:07.133Z,11.40
2022-11-13T09:39:55.064Z,11.51
2022-11-13T09:42:41.740Z,11.57
2022-11-13T09:45:29.772Z,11.61
2022-11-13T09:48:37.473Z,11.56
2022-11-13T09:51:29.824Z,11.46
2022-11-13T09:54:17.257Z,11.33
2022-11-13T09:57:11.643Z,11.03
2022-11-13T10:00:06.132Z,10.67
2022-11-13T10:03:54.176Z,10.61
2022-11-13T10:07:00.833Z,10.47
2022-11-13T10:10:05.108Z,10.43
2022-11-13T10:12:55.547Z,10.92
2022-11-13T10:15:44.735Z,10.85
2022-11-13T10:18:36.158Z,11.37
2022-11-13T10:21:28.366Z,11.95
2022-11-13T10:24:28.285Z,12.26
2022-11-13T10:27:15.910Z,11.82
2022-11-13T10:30:04.605Z,11.31
2022-11-13T10:32:50.831Z,10.98
2022-11-13T10:35:39.834Z,11.63
2022-11-13T10:38:46.599Z,12.64
2022-11-13T10:41:32.751Z,13.89
2022-11-13T10:44:35.384Z,14.00
2022-11-13T10:47:48.947Z,13.74
2022-11-13T10:50:31.288Z,13.94
2022-11-13T10:53:19.255Z,14.02
2022-11-13T10:56:14.689Z,13.58
2022-11-13T10:59:16.524Z,13.15
2022-11-13T11:02:23.165Z,12.78
2022-11-13T11:05:24.573Z,12.44
2022-11-13T11:08:11.322Z,11.78
2022-11-13T11:11:25.965Z,11.32
2022-11-13T11:14:22.166Z,10.78
2022-11-13T11:17:09.515Z,10.42
2022-11-13T11:20:21.023Z,10.51
2022-11-13T11:23:25.639Z,10.46
2022-11-13T11:26:18.838Z,10.35
2022-11-13T11:29:18.880Z,10.42
2022-11-13T11:32:29.336Z,10.23
2022-11-13T11:35:21.550Z,10.15
2022-11-13T11:38:33.129Z,10.08
2022-11-13T11:41:25.921Z,9.87
2022-11-13T11:44:42.716Z,9.92
2022-11-13T11:47:30.955Z,9.83
2022-11-13T11:50:21.931Z,9.75
2022-11-13T11:53:20.836Z,9.47
2022-11-13T11:56:25.280Z,9.41
2022-11-13T11:59:31.467Z,9.27
2022-11-13T12:02:38.926Z,9.23
2022-11-13T12:05:58.941Z,8.96
2022-11-13T12:09:02.271Z,8.95
2022-11-13T12:11:56.551Z,8.77
2022-11-13T12:14:57.824Z,8.62
2022-11-13T12:18:30.524Z,8.49
2022-11-13T12:21:47.472Z,8.34
2022-11-13T12:24:54.368Z,8.28
2022-11-13T12:28:01.792Z,8.34
2022-11-13T12:31:13.244Z,8.32
2022-11-13T12:34:01.484Z,8.35
2022-11-13T12:36:48.141Z,8.31
2022-11-13T12:39:43.141Z,8.40
2022-11-13T12:42:44.606Z,8.36
2022-11-13T12:45:39.402Z,8.37
2022-11-13T12:48:35.185Z,8.31
2022-11-13T12:51:21.233Z,8.29
2022-11-13T12:54:10.371Z,8.24
2022-11-13T12:57:29.928Z,8.40
2022-11-13T13:00:27.057Z,8.46
2022-11-13T13:03:27.750Z,8.54
2022-11-13T13:06:45.695Z,8.59
2022-11-13T13:09:36.924Z,8.55
2022-11-13T13:12:49.661Z,8.48
2022-11-13T13:15:42.248Z,8.46
2022-11-13T13:18:34.461Z,8.43
2022-11-13T13:21:21.441Z,8.25
2022-11-13T13:24:10.416Z,8.17
2022-11-13T13:26:56.735Z,8.10
2022-11-13T13:29:47.804Z,8.11
2022-11-13T13:33:24.367Z,7.97
2022-11-13T13:36:21.838Z,7.93
2022-11-13T13:39:28.035Z,7.99
2022-11-13T13:42:34.659Z,8.00
2022-11-13T13:45:31.950Z,8.03
2022-11-13T13:48:21.541Z,8.03
2022-11-13T13:51:41.874Z,8.03
2022-11-13T13:54:34.568Z,7.94
2022-11-13T13:57:24.125Z,7.97
2022-11-13T14:00:23.524Z,7.90
2022-11-13T14:03:35.213Z,7.89
2022-11-13T14:06:25.646Z,7.89
2022-11-13T14:09:19.037Z,7.84
2022-11-13T14:12:09.890Z,7.70
2022-11-13T14:14:56.061Z,7.66
2022-11-13T14:17:44.840Z,7.63
2022-11-13T14:20:39.711Z,7.51
2022-11-13T14:23:30.130Z,7.43
2022-11-13T14:26:16.201Z,7.47
2022-11-13T14:29:03.170Z,7.49
2022-11-13T14:31:54.807Z,7.56
2022-11-13T14:34:47.051Z,7.51
2022-11-13T14:37:39.172Z,7.48
2022-11-13T14:40:33.989Z,7.53
2022-11-13T14:43:34.019Z,7.55
2022-11-13T14:46:29.876Z,7.52
2022-11-13T14:49:36.742Z,7.51
2022-11-13T14:52:25.075Z,7.44
2022-11-13T14:55:22.383Z,7.43
2022-11-13T14:58:16.050Z,7.67
2022-11-13T15:02:01.835Z,7.92
2022-11-13T15:04:55.625Z,7.84
2022-11-13T15:07:42.455Z,7.79
2022-11-13T15:10:30.065Z,7.70
2022-11-13T15:13:19.796Z,7.69
2022-11-13T15:16:13.063Z,7.58
2022-11-13T15:19:05.140Z,7.47
2022-11-13T15:22:20.335Z,7.54
2022-11-13T15:24:58.017Z,7.58
2022-11-13T15:27:44.065Z,7.56
2022-11-13T15:30:32.407Z,7.47
2022-11-13T15:33:18.457Z,7.51
2022-11-13T15:36:03.694Z,7.52
2022-11-13T15:38:50.283Z,7.53
2022-11-13T15:41:36.369Z,7.60
2022-11-13T15:44:22.323Z,7.58
2022-11-13T15:47:25.977Z,7.59
2022-11-13T15:50:14.343Z,7.58
2022-11-13T15:53:05.035Z,7.59
2022-11-13T15:55:51.488Z,7.53
2022-11-13T15:58:37.513Z,7.49
2022-11-13T16:01:23.411Z,7.42
2022-11-13T16:04:12.076Z,7.38
2022-11-13T16:06:57.815Z,7.38
2022-11-13T16:09:45.301Z,7.44
2022-11-13T16:12:31.210Z,7.45
2022-11-13T16:15:17.584Z,7.39
2022-11-13T16:18:03.267Z,7.42
2022-11-13T16:20:48.797Z,7.36
2022-11-13T16:23:35.016Z,7.43
2022-11-13T16:26:25.802Z,7.40
2022-11-13T16:29:18.874Z,7.44
2022-11-13T16:32:04.737Z,7.47
2022-11-13T16:34:50.300Z,7.55
2022-11-13T16:37:36.201Z,7.46
2022-11-13T16:40:26.294Z,7.43
2022-11-13T16:43:13.079Z,7.36
2022-11-13T16:46:02.116Z,7.38
2022-11-13T16:48:48.493Z,7.32
2022-11-13T16:51:33.830Z,7.38
2022-11-13T16:54:19.967Z,7.41
2022-11-13T16:57:05.833Z,7.39
2022-11-13T16:59:51.503Z,7.32
2022-11-13T17:02:37.218Z,7.16
2022-11-13T17:05:24.328Z,7.25
2022-11-13T17:08:16.290Z,7.19
2022-11-13T17:11:02.347Z,7.21
2022-11-13T17:13:52.786Z,7.15
2022-11-13T17:16:38.437Z,7.14
2022-11-13T17:19:24.154Z,7.19
2022-11-13T17:22:14.222Z,7.21
2022-11-13T17:25:00.550Z,7.26
2022-11-13T17:27:46.919Z,7.36
2022-11-13T17:30:33.186Z,7.28
2022-11-13T17:33:19.082Z,7.30
2022-11-13T17:36:05.017Z,7.24
2022-11-13T17:38:50.757Z,7.24
2022-11-13T17:41:37.471Z,7.15
2022-11-13T17:44:23.039Z,7.03
2022-11-13T17:47:08.904Z,7.14
2022-11-13T17:49:56.122Z,7.06
2022-11-13T17:52:42.281Z,7.09
2022-11-13T17:55:29.331Z,7.08
2022-11-13T17:58:14.921Z,7.15
2022-11-13T18:01:06.367Z,7.17
2022-11-13T18:04:04.678Z,7.16
2022-11-13T18:06:50.554Z,7.11
2022-11-13T18:09:36.161Z,7.07
2022-11-13T18:12:27.333Z,7.06
2022-11-13T18:15:12.952Z,7.02
2022-11-13T18:17:58.756Z,7.03
2022-11-13T18:20:44.650Z,7.08
2022-11-13T18:23:30.850Z,7.09
2022-11-13T18:26:19.229Z,7.02
2022-11-13T18:29:05.330Z,6.86
2022-11-13T18:31:50.889Z,6.81
2022-11-13T18:34:37.172Z,6.74
2022-11-13T18:37:22.868Z,6.73
2022-11-13T18:40:09.331Z,6.68
2022-11-13T18:42:55.503Z,6.61
2022-11-13T18:45:44.841Z,6.59
2022-11-13T18:48:34.981Z,6.61
2022-11-13T18:51:32.702Z,6.54
2022-11-13T18:54:23.290Z,6.55
2022-11-13T18:57:10.397Z,6.51
2022-11-13T18:59:56.541Z,6.54
2022-11-13T19:02:42.282Z,6.45
2022-11-13T19:05:30.941Z,6.43
2022-11-13T19:08:20.049Z,6.44
2022-11-13T19:11:38.035Z,6.46
2022-11-13T19:14:26.095Z,6.41
2022-11-13T19:17:12.077Z,6.36
2022-11-13T19:19:57.903Z,6.42
2022-11-13T19:22:47.458Z,6.44
2022-11-13T19:25:33.321Z,6.41
2022-11-13T19:28:18.971Z,6.39
2022-11-13T19:31:10.519Z,6.52
2022-11-13T19:34:04.399Z,6.52
2022-11-13T19:36:51.510Z,6.59
2022-11-13T19:39:39.668Z,6.54
2022-11-13T19:42:28.012Z,6.40
2022-11-13T19:45:13.728Z,6.33
2022-11-13T19:47:59.337Z,6.24
2022-11-13T19:50:48.438Z,6.23
2022-11-13T19:53:37.245Z,6.21
2022-11-13T19:56:24.048Z,6.09
2022-11-13T19:59:11.641Z,6.05
2022-11-13T20:01:57.272Z,6.06
2022-11-13T20:04:45.473Z,6.06
2022-11-13T20:07:31.403Z,6.10
2022-11-13T20:10:17.602Z,6.13
2022-11-13T20:13:03.232Z,6.15
2022-11-13T20:15:55.074Z,6.16
2022-11-13T20:18:42.221Z,6.09
2022-11-13T20:21:32.489Z,6.11
2022-11-13T20:24:18.318Z,6.14
2022-11-13T20:27:04.330Z,6.21
2022-11-13T20:29:49.620Z,6.32
2022-11-13T20:32:39.385Z,6.29
2022-11-13T20:35:25.753Z,6.38
2022-11-13T20:38:11.398Z,6.40
2022-11-13T20:41:06.244Z,6.49
2022-11-13T20:43:52.874Z,6.47
2022-11-13T20:46:38.670Z,6.53
2022-11-13T20:49:24.427Z,6.46
2022-11-13T20:52:10.890Z,6.43
2022-11-13T20:54:56.461Z,6.44
2022-11-13T20:57:44.647Z,6.35
2022-11-13T21:00:30.074Z,6.23
2022-11-13T21:03:15.630Z,6.28
2022-11-13T21:06:01.375Z,6.30
2022-11-13T21:08:47.769Z,6.21
2022-11-13T21:11:33.393Z,6.20
2022-11-13T21:14:18.988Z,6.27
2022-11-13T21:17:04.171Z,6.27
2022-11-13T21:19:53.685Z,6.13
2022-11-13T21:22:42.131Z,6.09
2022-11-13T21:25:30.470Z,6.04
2022-11-13T21:28:27.063Z,6.09
2022-11-13T21:31:19.118Z,6.02
2022-11-13T21:34:04.958Z,6.05
2022-11-13T21:36:50.149Z,6.06
2022-11-13T21:39:55.221Z,6.06
2022-11-13T21:42:41.012Z,5.92
2022-11-13T21:45:26.358Z,5.85
2022-11-13T21:48:12.453Z,5.87
2022-11-13T21:50:58.839Z,5.70
2022-11-13T21:53:44.751Z,5.62
2022-11-13T21:56:32.283Z,5.53
2022-11-13T21:59:18.070Z,5.45
2022-11-13T22:02:03.459Z,5.69
2022-11-13T22:04:49.018Z,5.92
2022-11-13T22:07:34.512Z,5.94
2022-11-13T22:10:20.287Z,6.03
2022-11-13T22:13:06.054Z,5.92
2022-11-13T22:15:51.687Z,5.78
2022-11-13T22:18:37.299Z,5.60
2022-11-13T22:21:24.089Z,5.57
2022-11-13T22:24:10.142Z,5.40
2022-11-13T22:26:55.870Z,5.39
2022-11-13T22:29:41.667Z,5.33
2022-11-13T22:32:27.769Z,5.30
2022-11-13T22:35:13.739Z,5.19
2022-11-13T22:37:59.147Z,5.17
2022-11-13T22:40:45.210Z,5.04
2022-11-13T22:43:36.259Z,4.79
2022-11-13T22:46:27.556Z,4.78
2022-11-13T22:49:13.239Z,4.89
2022-11-13T22:52:03.522Z,4.78
2022-11-13T22:54:49.195Z,4.71
2022-11-13T22:57:37.057Z,4.60
2022-11-13T23:00:22.931Z,4.58
2022-11-13T23:03:08.621Z,4.44
2022-11-13T23:05:54.520Z,4.33
2022-11-13T23:08:41.367Z,4.32
2022-11-13T23:11:38.135Z,4.37
2022-11-13T23:14:24.071Z,4.48
2022-11-13T23:17:09.686Z,4.58
2022-11-13T23:19:55.279Z,4.63
2022-11-13T23:22:43.129Z,4.62
2022-11-13T23:25:29.039Z,4.66
2022-11-13T23:28:14.741Z,4.62
2022-11-13T23:31:00.572Z,4.63
2022-11-13T23:33:46.258Z,4.69
2022-11-13T23:36:31.637Z,4.66
2022-11-13T23:39:17.174Z,4.71
2022-11-13T23:42:02.892Z,4.71
2022-11-13T23:44:48.650Z,4.74
2022-11-13T23:47:34.592Z,4.76
2022-11-13T23:50:20.319Z,4.87
2022-11-13T23:53:05.897Z,4.87
2022-11-13T23:55:54.335Z,4.94
2022-11-13T23:58:39.739Z,5.02
